Time;durP1;ratioP1;P1;durP2;ratioP2;P2;SDS_P1;SDS_P2;PMS_P1;PMS_P2;Temp;Humidity;BMP_temperature;BMP_pressure;BME280_temperature;BME280_humidity;BME280_pressure;Samples;Min_cycle;Max_cycle;Signal;HPM_P1;HPM_P2
2023/03/26 00:00:43;;;;;;;;;;;6.50;99.90;;;;;;5025577;28;19956;-70
2023/03/26 00:03:10;;;;;;;;;;;6.50;99.90;;;;;;5025410;28;19921;-70
2023/03/26 00:05:37;;;;;;;;;;;6.50;99.90;;;;;;5025192;28;20233;-70
2023/03/26 00:08:04;;;;;;;;;;;6.50;99.90;;;;;;5025269;28;19984;-70
2023/03/26 00:10:30;;;;;;;;;;;6.50;99.90;;;;;;5025814;28;19921;-70
2023/03/26 00:12:57;;;;;;;;;;;6.40;99.90;;;;;;5025513;28;19928;-70
2023/03/26 00:15:25;;;;;;;;;;;6.40;99.90;;;;;;5025555;28;19988;-70
2023/03/26 00:17:53;;;;;;;;;;;6.40;99.90;;;;;;5005789;28;19928;-70
2023/03/26 00:20:19;;;;;;;;;;;6.40;99.90;;;;;;5005565;28;19922;-70
2023/03/26 00:22:46;;;;;;;;;;;6.40;99.90;;;;;;5005736;28;19985;-70
2023/03/26 00:25:13;;;;;;;;;;;6.30;99.90;;;;;;5005728;28;19960;-70
2023/03/26 00:27:40;;;;;;;;;;;6.30;99.90;;;;;;5007675;28;19980;-70
2023/03/26 00:30:07;;;;;;;;;;;6.30;99.90;;;;;;5024168;28;19963;-70
2023/03/26 00:32:35;;;;;;;;;;;6.30;99.90;;;;;;5024923;28;19922;-70
2023/03/26 00:35:03;;;;;;;;;;;6.30;99.90;;;;;;5025142;28;19921;-70
2023/03/26 00:37:29;;;;;;;;;;;6.30;99.90;;;;;;5024584;28;19928;-70
2023/03/26 00:39:58;;;;;;;;;;;6.30;99.90;;;;;;5025014;28;19992;-70
2023/03/26 00:42:25;;;;;;;;;;;6.30;99.90;;;;;;5024996;28;19929;-70
2023/03/26 00:44:54;;;;;;;;;;;6.30;99.90;;;;;;5025065;28;19952;-70
2023/03/26 00:47:21;;;;;;;;;;;6.30;99.90;;;;;;5024863;28;19928;-70
2023/03/26 00:49:51;;;;;;;;;;;6.30;99.90;;;;;;5023947;28;21143;-69
2023/03/26 00:52:18;;;;;;;;;;;6.40;99.90;;;;;;5024435;28;19927;-70
2023/03/26 00:54:45;;;;;;;;;;;6.30;99.90;;;;;;5024889;28;19927;-70
2023/03/26 00:57:12;;;;;;;;;;;6.30;99.90;;;;;;5024546;28;19981;-70
2023/03/26 00:59:40;;;;;;;;;;;6.30;99.90;;;;;;5024399;28;20300;-70
2023/03/26 01:02:09;;;;;;;;;;;6.30;99.90;;;;;;5024276;28;19922;-71
2023/03/26 01:04:36;;;;;;;;;;;6.20;99.90;;;;;;5024101;28;19922;-70
2023/03/26 01:07:09;;;;;;;;;;;6.20;99.90;;;;;;5024391;28;19953;-70
2023/03/26 01:09:37;;;;;;;;;;;6.20;99.90;;;;;;5024261;28;19927;-70
2023/03/26 01:12:05;;;;;;;;;;;6.20;99.90;;;;;;5024255;28;20350;-70
2023/03/26 01:14:32;;;;;;;;;;;6.20;99.90;;;;;;5024580;28;19961;-71
2023/03/26 01:17:00;;;;;;;;;;;6.20;99.90;;;;;;5023866;28;20257;-70
2023/03/26 01:19:29;;;;;;;;;;;6.20;99.90;;;;;;5024008;28;19929;-70
2023/03/26 01:21:56;;;;;;;;;;;6.20;99.90;;;;;;5024214;28;19921;-71
2023/03/26 01:24:24;;;;;;;;;;;6.30;99.90;;;;;;5024054;28;20204;-70
2023/03/26 01:27:01;;;;;;;;;;;6.30;99.90;;;;;;5023730;28;20120;-70
2023/03/26 01:29:33;;;;;;;;;;;6.40;99.90;;;;;;5024192;28;19921;-70
2023/03/26 01:32:04;;;;;;;;;;;6.40;99.90;;;;;;5023874;28;20201;-70
2023/03/26 01:34:36;;;;;;;;;;;6.40;99.90;;;;;;5024299;28;19921;-70
2023/03/26 01:37:08;;;;;;;;;;;6.40;99.90;;;;;;5023794;28;19940;-70
2023/03/26 01:39:41;;;;;;;;;;;6.40;99.90;;;;;;5023841;28;19992;-70
2023/03/26 01:42:11;;;;;;;;;;;6.40;99.90;;;;;;5022895;28;19925;-70
2023/03/26 01:44:41;;;;;;;;;;;6.40;99.90;;;;;;5023765;28;19957;-70
2023/03/26 01:47:09;;;;;;;;;;;6.40;99.90;;;;;;5023582;28;20152;-70
2023/03/26 01:49:36;;;;;;;;;;;6.50;99.90;;;;;;5024030;28;19988;-70
2023/03/26 01:52:02;;;;;;;;;;;6.50;99.90;;;;;;5023956;28;19953;-69
2023/03/26 01:54:31;;;;;;;;;;;6.50;99.90;;;;;;5023921;28;19929;-70
2023/03/26 01:57:03;;;;;;;;;;;6.50;99.90;;;;;;5023308;28;19921;-69
2023/03/26 01:59:45;;;;;;;;;;;6.40;99.90;;;;;;5023756;28;20117;-69
2023/03/26 02:02:13;;;;;;;;;;;6.40;99.90;;;;;;5023415;28;19980;-70
2023/03/26 02:04:42;;;;;;;;;;;6.30;99.90;;;;;;5023590;28;19921;-70
2023/03/26 02:07:12;;;;;;;;;;;6.30;99.90;;;;;;5023462;28;19957;-69
2023/03/26 02:09:44;;;;;;;;;;;6.30;99.90;;;;;;5023622;28;20256;-69
2023/03/26 02:12:13;;;;;;;;;;;6.20;99.90;;;;;;5023808;28;19938;-70
2023/03/26 02:14:41;;;;;;;;;;;6.20;99.90;;;;;;5023602;28;20090;-70
2023/03/26 02:17:08;;;;;;;;;;;6.20;99.90;;;;;;5023282;28;20209;-69
2023/03/26 02:19:35;;;;;;;;;;;6.30;99.90;;;;;;5023117;28;19992;-69
2023/03/26 02:22:02;;;;;;;;;;;6.30;99.90;;;;;;5023127;28;19927;-69
2023/03/26 02:24:28;;;;;;;;;;;6.30;99.90;;;;;;5023621;28;19921;-70
2023/03/26 02:27:01;;;;;;;;;;;6.30;99.90;;;;;;5022642;28;19922;-70
2023/03/26 02:29:29;;;;;;;;;;;6.40;99.90;;;;;;5023625;28;19921;-70
2023/03/26 02:31:55;;;;;;;;;;;6.40;99.90;;;;;;5023432;28;20029;-70
2023/03/26 02:34:22;;;;;;;;;;;6.40;99.90;;;;;;5023276;28;19988;-70
2023/03/26 02:36:48;;;;;;;;;;;6.40;99.90;;;;;;5023171;28;19989;-70
2023/03/26 02:39:15;;;;;;;;;;;6.40;99.90;;;;;;5023382;28;20165;-70
2023/03/26 02:41:42;;;;;;;;;;;6.30;99.90;;;;;;5023347;28;19928;-70
2023/03/26 02:44:09;;;;;;;;;;;6.30;99.90;;;;;;5023404;28;19921;-70
2023/03/26 02:46:37;;;;;;;;;;;6.30;99.90;;;;;;5022964;28;19988;-71
2023/03/26 02:49:03;;;;;;;;;;;6.20;99.90;;;;;;5023350;28;19927;-70
2023/03/26 02:51:33;;;;;;;;;;;6.20;99.90;;;;;;5023319;28;20162;-70
2023/03/26 02:54:00;;;;;;;;;;;6.20;99.90;;;;;;5025727;28;19928;-70
2023/03/26 02:56:27;;;;;;;;;;;6.30;99.90;;;;;;5026756;28;19921;-71
2023/03/26 02:58:54;;;;;;;;;;;6.20;99.90;;;;;;5027000;28;19996;-71
2023/03/26 03:01:21;;;;;;;;;;;6.20;99.90;;;;;;5026771;28;19921;-70
2023/03/26 03:03:49;;;;;;;;;;;6.20;99.90;;;;;;5026515;28;20009;-70
2023/03/26 03:06:17;;;;;;;;;;;6.20;99.90;;;;;;5026746;28;19922;-70
2023/03/26 03:08:44;;;;;;;;;;;6.20;99.90;;;;;;5027043;28;19922;-70
2023/03/26 03:11:12;;;;;;;;;;;6.20;99.90;;;;;;5026728;28;19960;-70
2023/03/26 03:13:39;;;;;;;;;;;6.20;99.90;;;;;;5026854;28;19928;-70
2023/03/26 03:16:05;;;;;;;;;;;6.20;99.90;;;;;;5026244;28;20213;-70
2023/03/26 03:18:32;;;;;;;;;;;6.20;99.90;;;;;;5026774;28;19932;-70
2023/03/26 03:21:01;;;;;;;;;;;6.10;99.90;;;;;;5026675;28;19995;-70
2023/03/26 03:23:27;;;;;;;;;;;6.10;99.90;;;;;;5026576;28;19967;-70
2023/03/26 03:25:56;;;;;;;;;;;6.10;99.90;;;;;;5026259;28;19957;-70
2023/03/26 03:28:23;;;;;;;;;;;6.00;99.90;;;;;;5025897;28;19921;-70
2023/03/26 03:30:52;;;;;;;;;;;6.00;99.90;;;;;;5026466;28;19967;-70
2023/03/26 03:33:19;;;;;;;;;;;6.00;99.90;;;;;;5026431;28;19936;-69
2023/03/26 03:35:46;;;;;;;;;;;6.00;99.90;;;;;;5026243;28;19933;-70
2023/03/26 03:38:14;;;;;;;;;;;6.00;99.90;;;;;;5026238;28;19922;-70
2023/03/26 03:40:41;;;;;;;;;;;5.90;99.90;;;;;;5026355;28;19927;-70
2023/03/26 03:43:08;;;;;;;;;;;5.90;99.90;;;;;;5026318;28;19988;-70
2023/03/26 03:45:35;;;;;;;;;;;5.90;99.90;;;;;;5025989;28;19992;-70
2023/03/26 03:48:01;;;;;;;;;;;5.90;99.90;;;;;;5026182;28;19925;-70
2023/03/26 03:50:28;;;;;;;;;;;5.90;99.90;;;;;;5026246;28;20161;-70
2023/03/26 03:52:55;;;;;;;;;;;5.90;99.90;;;;;;5025666;28;19993;-70
2023/03/26 03:55:26;;;;;;;;;;;6.00;99.90;;;;;;5025994;28;19921;-70
2023/03/26 03:57:53;;;;;;;;;;;5.90;99.90;;;;;;5025419;28;20118;-70
2023/03/26 04:00:20;;;;;;;;;;;6.00;99.90;;;;;;5025646;28;19927;-70
2023/03/26 04:02:47;;;;;;;;;;;5.90;99.90;;;;;;5025238;28;20117;-70
2023/03/26 04:05:14;;;;;;;;;;;5.90;99.90;;;;;;5018012;28;19985;-70
2023/03/26 04:07:40;;;;;;;;;;;5.90;99.90;;;;;;5005711;28;19922;-70
2023/03/26 04:10:08;;;;;;;;;;;5.90;99.90;;;;;;5006069;28;19921;-70
2023/03/26 04:12:36;;;;;;;;;;;5.90;99.90;;;;;;5006087;28;19990;-70
2023/03/26 04:15:03;;;;;;;;;;;5.90;99.90;;;;;;5006114;28;20272;-71
2023/03/26 04:17:30;;;;;;;;;;;5.90;99.90;;;;;;5005948;28;19922;-70
2023/03/26 04:19:56;;;;;;;;;;;5.90;99.90;;;;;;5005884;28;19922;-69
2023/03/26 04:22:33;;;;;;;;;;;5.80;99.90;;;;;;5005844;28;19922;-70
2023/03/26 04:25:01;;;;;;;;;;;5.90;99.90;;;;;;5005921;28;19921;-70
2023/03/26 04:27:30;;;;;;;;;;;5.80;99.90;;;;;;5005520;28;19929;-70
2023/03/26 04:29:59;;;;;;;;;;;5.80;99.90;;;;;;5005668;28;20316;-71
2023/03/26 04:32:28;;;;;;;;;;;5.80;99.90;;;;;;5005749;28;20014;-70
2023/03/26 04:34:58;;;;;;;;;;;5.80;99.90;;;;;;5005593;28;19992;-70
2023/03/26 04:37:26;;;;;;;;;;;5.70;99.90;;;;;;5005344;28;19926;-71
2023/03/26 04:39:53;;;;;;;;;;;5.80;99.90;;;;;;5005616;28;19929;-70
2023/03/26 04:42:20;;;;;;;;;;;5.70;99.90;;;;;;5005709;28;19961;-70
2023/03/26 04:44:49;;;;;;;;;;;5.70;99.90;;;;;;5005381;28;19925;-70
2023/03/26 04:47:17;;;;;;;;;;;5.70;99.90;;;;;;5005130;28;20209;-70
2023/03/26 04:49:44;;;;;;;;;;;5.70;99.90;;;;;;5021076;28;19988;-70
2023/03/26 04:52:11;;;;;;;;;;;5.70;99.90;;;;;;5024934;28;19922;-70
2023/03/26 04:54:38;;;;;;;;;;;5.70;99.90;;;;;;5025066;28;19929;-70
2023/03/26 04:57:06;;;;;;;;;;;5.70;99.90;;;;;;5024392;28;19921;-71
2023/03/26 04:59:34;;;;;;;;;;;5.60;99.90;;;;;;5024866;28;19921;-70
2023/03/26 05:02:01;;;;;;;;;;;5.70;99.90;;;;;;5024054;28;19921;-70
2023/03/26 05:04:29;;;;;;;;;;;5.60;99.90;;;;;;5017558;28;19960;-70
2023/03/26 05:06:56;;;;;;;;;;;5.60;99.90;;;;;;5004526;28;20208;-70
2023/03/26 05:09:23;;;;;;;;;;;5.60;99.90;;;;;;5012297;28;19960;-70
2023/03/26 05:11:50;;;;;;;;;;;5.60;99.90;;;;;;5024185;28;19921;-70
2023/03/26 05:14:17;;;;;;;;;;;5.60;99.90;;;;;;5024345;28;19975;-70
2023/03/26 05:16:45;;;;;;;;;;;5.60;99.90;;;;;;5023738;28;20208;-70
2023/03/26 05:19:12;;;;;;;;;;;5.60;99.90;;;;;;5024362;28;19944;-70
2023/03/26 05:21:40;;;;;;;;;;;5.60;99.90;;;;;;5024216;28;20177;-70
2023/03/26 05:24:06;;;;;;;;;;;5.50;99.90;;;;;;5024362;28;19921;-70
2023/03/26 05:26:33;;;;;;;;;;;5.50;99.90;;;;;;5023872;28;20213;-70
2023/03/26 05:29:01;;;;;;;;;;;5.50;99.90;;;;;;5024149;28;19922;-70
2023/03/26 05:31:29;;;;;;;;;;;5.50;99.90;;;;;;5023967;28;19960;-70
2023/03/26 05:33:56;;;;;;;;;;;5.50;99.90;;;;;;5024230;28;20139;-71
2023/03/26 05:36:23;;;;;;;;;;;5.60;99.90;;;;;;5023893;28;19921;-70
2023/03/26 05:38:51;;;;;;;;;;;5.60;99.90;;;;;;5004497;28;20117;-70
2023/03/26 05:41:17;;;;;;;;;;;5.60;99.90;;;;;;5009579;28;19928;-70
2023/03/26 05:43:46;;;;;;;;;;;5.60;99.90;;;;;;5023777;28;19984;-70
2023/03/26 05:46:13;;;;;;;;;;;5.70;99.90;;;;;;5023702;28;19929;-70
2023/03/26 05:48:40;;;;;;;;;;;5.70;99.90;;;;;;5023857;28;19922;-70
2023/03/26 05:51:07;;;;;;;;;;;5.80;99.90;;;;;;5024047;28;19960;-70
2023/03/26 05:53:33;;;;;;;;;;;5.80;99.90;;;;;;5023644;28;19921;-70
2023/03/26 05:56:01;;;;;;;;;;;5.80;99.90;;;;;;5022797;28;19922;-70
2023/03/26 05:58:29;;;;;;;;;;;5.90;99.90;;;;;;5023744;28;20148;-70
2023/03/26 06:00:57;;;;;;;;;;;5.90;99.90;;;;;;5023679;28;19933;-70
2023/03/26 06:03:23;;;;;;;;;;;5.90;99.90;;;;;;5023104;28;20240;-70
2023/03/26 06:05:50;;;;;;;;;;;5.80;99.90;;;;;;5011913;28;20158;-70
2023/03/26 06:08:18;;;;;;;;;;;5.90;99.90;;;;;;5009817;28;19984;-70
2023/03/26 06:10:44;;;;;;;;;;;5.90;99.90;;;;;;5004759;28;19953;-70
2023/03/26 06:13:15;;;;;;;;;;;6.00;99.90;;;;;;5021185;28;20272;-70
2023/03/26 06:15:41;;;;;;;;;;;6.00;99.90;;;;;;5023548;28;19921;-70
2023/03/26 06:18:08;;;;;;;;;;;6.10;99.90;;;;;;5023656;28;19960;-70
2023/03/26 06:20:35;;;;;;;;;;;6.10;99.90;;;;;;5023647;28;19921;-71
2023/03/26 06:23:04;;;;;;;;;;;6.10;99.90;;;;;;5021683;28;19944;-70
2023/03/26 06:25:31;;;;;;;;;;;6.10;99.90;;;;;;5003835;28;19952;-71
2023/03/26 06:27:58;;;;;;;;;;;6.20;99.90;;;;;;5014428;28;20238;-70
2023/03/26 06:30:26;;;;;;;;;;;6.10;99.90;;;;;;5027579;28;19956;-70
2023/03/26 06:32:52;;;;;;;;;;;6.10;99.90;;;;;;5027618;28;19928;-70
2023/03/26 06:35:19;;;;;;;;;;;6.20;99.90;;;;;;5027312;28;19975;-70
2023/03/26 06:37:46;;;;;;;;;;;6.20;99.90;;;;;;5026669;28;20285;-70
2023/03/26 06:40:13;;;;;;;;;;;6.20;99.90;;;;;;5026351;28;19928;-70
2023/03/26 06:42:39;;;;;;;;;;;6.20;99.90;;;;;;5026637;28;19926;-71
2023/03/26 06:45:06;;;;;;;;;;;6.20;99.90;;;;;;5026509;28;19953;-71
2023/03/26 06:47:34;;;;;;;;;;;6.20;99.90;;;;;;5026477;28;19922;-71
2023/03/26 06:50:01;;;;;;;;;;;6.20;99.90;;;;;;5025909;28;19922;-70
2023/03/26 06:52:28;;;;;;;;;;;6.20;99.90;;;;;;5026756;28;19952;-71
2023/03/26 06:54:55;;;;;;;;;;;6.20;99.90;;;;;;5027287;28;19921;-72
2023/03/26 06:57:21;;;;;;;;;;;6.20;99.90;;;;;;5027033;28;19960;-71
2023/03/26 06:59:48;;;;;;;;;;;6.20;99.90;;;;;;5027111;28;19996;-72
2023/03/26 07:02:14;;;;;;;;;;;6.20;99.90;;;;;;5026143;28;19980;-71
2023/03/26 07:04:42;;;;;;;;;;;6.30;99.90;;;;;;5026986;28;19960;-71
2023/03/26 07:07:09;;;;;;;;;;;6.30;99.90;;;;;;5026541;28;19988;-71
2023/03/26 07:09:36;;;;;;;;;;;6.40;99.90;;;;;;5026898;28;19997;-71
2023/03/26 07:12:02;;;;;;;;;;;6.40;99.90;;;;;;5026507;28;20260;-71
2023/03/26 07:14:31;;;;;;;;;;;6.40;99.90;;;;;;5026888;28;19922;-71
2023/03/26 07:16:58;;;;;;;;;;;6.40;99.90;;;;;;5026505;28;19952;-72
2023/03/26 07:19:25;;;;;;;;;;;6.50;99.90;;;;;;5026654;28;19921;-72
2023/03/26 07:21:53;;;;;;;;;;;6.50;99.90;;;;;;5026296;28;19921;-71
2023/03/26 07:24:20;;;;;;;;;;;6.50;99.90;;;;;;5026682;28;19921;-71
2023/03/26 07:26:50;;;;;;;;;;;6.60;99.90;;;;;;5026427;28;19988;-73
2023/03/26 07:29:20;;;;;;;;;;;6.60;99.90;;;;;;5026591;28;19921;-71
2023/03/26 07:31:50;;;;;;;;;;;6.60;99.90;;;;;;5026503;28;19922;-71
2023/03/26 07:34:23;;;;;;;;;;;6.60;99.90;;;;;;5026523;28;19922;-76
2023/03/26 07:36:52;;;;;;;;;;;6.60;99.90;;;;;;5026176;28;19921;-70
2023/03/26 07:39:30;;;;;;;;;;;6.60;99.90;;;;;;5026308;28;19921;-71
2023/03/26 07:42:01;;;;;;;;;;;6.70;99.90;;;;;;5026019;28;19928;-71
2023/03/26 07:44:43;;;;;;;;;;;6.70;99.90;;;;;;5026059;28;20260;-71
2023/03/26 07:47:17;;;;;;;;;;;6.70;99.90;;;;;;5026043;28;19984;-71
2023/03/26 07:49:44;;;;;;;;;;;6.70;99.90;;;;;;5026281;28;20020;-73
2023/03/26 07:52:10;;;;;;;;;;;6.70;99.90;;;;;;5026145;28;19922;-71
2023/03/26 07:54:39;;;;;;;;;;;6.60;99.90;;;;;;5025995;28;19921;-71
2023/03/26 07:57:08;;;;;;;;;;;6.60;99.90;;;;;;5025532;28;19952;-71
2023/03/26 07:59:39;;;;;;;;;;;6.60;99.90;;;;;;5025964;28;19949;-71
2023/03/26 08:02:28;;;;;;;;;;;6.70;99.90;;;;;;5025587;28;19956;-71
2023/03/26 08:04:59;;;;;;;;;;;6.70;99.90;;;;;;5025748;28;20173;-71
2023/03/26 08:07:30;;;;;;;;;;;6.70;99.90;;;;;;5025721;28;19921;-71
2023/03/26 08:10:03;;;;;;;;;;;6.70;99.90;;;;;;5025725;28;19928;-71
2023/03/26 08:12:37;;;;;;;;;;;6.70;99.90;;;;;;5025632;28;19988;-70
2023/03/26 08:15:09;;;;;;;;;;;6.70;99.90;;;;;;5025686;28;20117;-71
2023/03/26 08:17:38;;;;;;;;;;;6.70;99.90;;;;;;5025285;28;19922;-71
2023/03/26 08:20:10;;;;;;;;;;;6.70;99.90;;;;;;5025418;28;20209;-71
2023/03/26 08:22:40;;;;;;;;;;;6.80;99.90;;;;;;5025169;28;19988;-71
2023/03/26 08:25:33;;;;;;;;;;;6.80;99.90;;;;;;5025457;28;19989;-71
2023/03/26 08:28:14;;;;;;;;;;;6.90;99.90;;;;;;5001177;28;19922;-71
2023/03/26 08:30:41;;;;;;;;;;;6.90;99.90;;;;;;5025474;28;20145;-71
2023/03/26 08:33:11;;;;;;;;;;;6.80;99.90;;;;;;5025091;28;19988;-71
2023/03/26 08:35:41;;;;;;;;;;;6.90;99.90;;;;;;5025469;28;20159;-70
2023/03/26 08:38:07;;;;;;;;;;;6.90;99.90;;;;;;5025245;28;19922;-71
2023/03/26 08:40:56;;;;;;;;;;;6.90;99.90;;;;;;5025206;28;19985;-71
2023/03/26 08:43:33;;;;;;;;;;;6.90;99.90;;;;;;5024784;28;20099;-71
2023/03/26 08:46:17;;;;;;;;;;;7.00;99.90;;;;;;5025055;28;19921;-71
2023/03/26 08:49:01;;;;;;;;;;;7.00;99.90;;;;;;5004607;28;19989;-71
2023/03/26 08:51:43;;;;;;;;;;;7.00;99.90;;;;;;5017524;28;20251;-71
2023/03/26 08:54:28;;;;;;;;;;;7.00;99.90;;;;;;5025178;28;19928;-71
2023/03/26 08:57:03;;;;;;;;;;;7.10;99.90;;;;;;5024462;28;19993;-71
2023/03/26 09:00:00;;;;;;;;;;;7.10;99.90;;;;;;5024897;28;20005;-71
2023/03/26 09:02:53;;;;;;;;;;;7.20;99.90;;;;;;5024277;28;20183;-71
2023/03/26 09:05:51;;;;;;;;;;;7.20;99.90;;;;;;5024770;28;19988;-71
2023/03/26 09:08:32;;;;;;;;;;;7.20;99.90;;;;;;5024611;28;19921;-71
2023/03/26 09:11:10;;;;;;;;;;;7.10;99.90;;;;;;5024296;28;19959;-71
2023/03/26 09:13:57;;;;;;;;;;;7.10;99.90;;;;;;5024801;28;19921;-71
2023/03/26 09:16:33;;;;;;;;;;;7.10;99.90;;;;;;5019221;28;19988;-71
2023/03/26 09:19:15;;;;;;;;;;;7.00;99.90;;;;;;5024669;28;19960;-71
2023/03/26 09:22:15;;;;;;;;;;;6.90;99.90;;;;;;5024431;28;19921;-71
2023/03/26 09:24:56;;;;;;;;;;;6.80;99.90;;;;;;5024302;28;19928;-73
2023/03/26 09:27:32;;;;;;;;;;;6.80;99.90;;;;;;5024208;28;19996;-71
2023/03/26 09:30:20;;;;;;;;;;;6.90;99.90;;;;;;5024412;28;19956;-71
2023/03/26 09:33:02;;;;;;;;;;;6.90;99.90;;;;;;5019146;28;19928;-71
2023/03/26 09:35:50;;;;;;;;;;;6.80;99.90;;;;;;5021788;28;19936;-72
2023/03/26 09:38:24;;;;;;;;;;;6.80;99.90;;;;;;5024199;28;19929;-71
2023/03/26 09:40:56;;;;;;;;;;;6.90;99.90;;;;;;5024302;28;19922;-71
2023/03/26 09:43:48;;;;;;;;;;;6.90;99.90;;;;;;5023906;28;19996;-71
2023/03/26 09:46:22;;;;;;;;;;;6.90;99.90;;;;;;5023894;28;19964;-71
2023/03/26 09:48:53;;;;;;;;;;;6.90;99.90;;;;;;5024295;28;19921;-71
2023/03/26 09:51:35;;;;;;;;;;;6.90;99.90;;;;;;5024301;28;19922;-71
2023/03/26 09:54:14;;;;;;;;;;;6.90;99.90;;;;;;5024099;28;19921;-71
2023/03/26 09:56:48;;;;;;;;;;;6.80;99.90;;;;;;5023664;28;19928;-71
2023/03/26 09:59:24;;;;;;;;;;;6.90;99.90;;;;;;5024276;28;19960;-71
2023/03/26 10:01:55;;;;;;;;;;;6.90;99.90;;;;;;5023618;28;19922;-71
2023/03/26 10:04:36;;;;;;;;;;;6.80;99.90;;;;;;5023365;28;19964;-71
2023/03/26 10:07:05;;;;;;;;;;;6.80;99.90;;;;;;5023982;28;19921;-71
2023/03/26 10:09:37;;;;;;;;;;;6.80;99.90;;;;;;5023916;28;19929;-71
2023/03/26 10:12:18;;;;;;;;;;;6.80;99.90;;;;;;5023816;28;19964;-71
2023/03/26 10:14:49;;;;;;;;;;;6.80;99.90;;;;;;5023752;28;19921;-70
2023/03/26 10:17:25;;;;;;;;;;;6.80;99.90;;;;;;5023562;28;19925;-71
2023/03/26 10:19:57;;;;;;;;;;;6.70;99.90;;;;;;5023879;28;20153;-71
2023/03/26 10:22:40;;;;;;;;;;;6.70;99.90;;;;;;5023652;28;19921;-71
2023/03/26 10:25:28;;;;;;;;;;;6.70;99.90;;;;;;5023417;28;20223;-71
2023/03/26 10:28:00;;;;;;;;;;;6.70;99.90;;;;;;5023628;28;19964;-71
2023/03/26 10:30:39;;;;;;;;;;;6.70;99.90;;;;;;5023752;28;20311;-71
2023/03/26 10:33:12;;;;;;;;;;;6.70;99.90;;;;;;5023726;28;19921;-72
2023/03/26 10:35:45;;;;;;;;;;;6.80;99.90;;;;;;5023212;28;19922;-71
2023/03/26 10:38:16;;;;;;;;;;;6.90;99.90;;;;;;5023520;28;19921;-71
2023/03/26 10:40:51;;;;;;;;;;;6.90;99.90;;;;;;5023472;28;19981;-71
2023/03/26 10:43:24;;;;;;;;;;;6.90;99.90;;;;;;5023156;28;19953;-71
2023/03/26 10:46:08;;;;;;;;;;;6.90;99.90;;;;;;5023568;28;19928;-71
2023/03/26 10:48:42;;;;;;;;;;;7.00;99.90;;;;;;5023513;28;19928;-72
2023/03/26 10:51:23;;;;;;;;;;;7.00;99.90;;;;;;5023694;28;19922;-72
2023/03/26 10:53:53;;;;;;;;;;;7.00;99.90;;;;;;5021668;28;20110;-70
2023/03/26 10:56:25;;;;;;;;;;;7.10;99.90;;;;;;5023126;28;19922;-71
2023/03/26 10:58:52;;;;;;;;;;;7.10;99.90;;;;;;5023528;28;19949;-72
2023/03/26 11:01:23;;;;;;;;;;;7.20;99.90;;;;;;5023351;28;19921;-72
2023/03/26 11:03:51;;;;;;;;;;;7.20;99.90;;;;;;5022928;28;19992;-70
2023/03/26 11:06:25;;;;;;;;;;;7.30;99.90;;;;;;5022825;28;19922;-72
2023/03/26 11:08:56;;;;;;;;;;;7.30;99.90;;;;;;5023407;28;19928;-71
2023/03/26 11:11:29;;;;;;;;;;;7.20;99.90;;;;;;5022980;28;19992;-71
2023/03/26 11:13:59;;;;;;;;;;;7.20;99.90;;;;;;5023936;28;19929;-72
2023/03/26 11:16:27;;;;;;;;;;;7.20;99.90;;;;;;5026651;28;19956;-71
2023/03/26 11:18:58;;;;;;;;;;;7.30;99.90;;;;;;5026903;28;19943;-72
2023/03/26 11:21:28;;;;;;;;;;;7.40;99.90;;;;;;5026823;28;19927;-72
2023/03/26 11:24:01;;;;;;;;;;;7.50;99.90;;;;;;5026783;28;19928;-72
2023/03/26 11:26:33;;;;;;;;;;;7.60;99.90;;;;;;5026464;28;20172;-72
2023/03/26 11:29:06;;;;;;;;;;;7.50;99.90;;;;;;5027087;28;19988;-72
2023/03/26 11:31:39;;;;;;;;;;;7.50;99.90;;;;;;5026723;28;20086;-72
2023/03/26 11:34:09;;;;;;;;;;;7.40;99.90;;;;;;5026464;28;19928;-72
2023/03/26 11:36:40;;;;;;;;;;;7.40;99.90;;;;;;5026407;28;19921;-72
2023/03/26 11:39:10;;;;;;;;;;;7.50;99.90;;;;;;5028214;28;19922;-75
2023/03/26 11:41:38;;;;;;;;;;;7.60;99.90;;;;;;5028317;28;19992;-72
2023/03/26 11:44:08;;;;;;;;;;;7.60;99.90;;;;;;5026201;28;19933;-72
2023/03/26 11:46:37;;;;;;;;;;;7.70;99.90;;;;;;5026491;28;19928;-72
2023/03/26 11:49:09;;;;;;;;;;;7.70;99.90;;;;;;5026624;28;19928;-72
2023/03/26 11:51:37;;;;;;;;;;;7.80;99.90;;;;;;5026328;28;19925;-71
2023/03/26 11:54:06;;;;;;;;;;;7.90;99.90;;;;;;5026073;28;19988;-72
2023/03/26 11:56:34;;;;;;;;;;;7.90;99.90;;;;;;5025914;28;20252;-72
2023/03/26 11:59:04;;;;;;;;;;;8.00;99.90;;;;;;5025822;28;19992;-71
2023/03/26 12:01:42;;;;;;;;;;;8.10;99.90;;;;;;5025856;28;19922;-72
2023/03/26 12:04:12;;;;;;;;;;;8.10;99.90;;;;;;5025799;28;19921;-71
2023/03/26 12:06:39;;;;;;;;;;;8.20;99.90;;;;;;5025809;28;19921;-72
2023/03/26 12:09:16;;;;;;;;;;;8.40;99.90;;;;;;5025896;28;19921;-72
2023/03/26 12:11:43;;;;;;;;;;;8.80;99.90;;;;;;5025824;28;19922;-72
2023/03/26 12:14:16;;;;;;;;;;;9.00;99.90;;;;;;5025810;28;19964;-71
2023/03/26 12:16:56;;;;;;;;;;;9.00;99.90;;;;;;5025594;28;20090;-71
2023/03/26 12:19:23;;;;;;;;;;;9.10;99.90;;;;;;5025425;28;19922;-71
2023/03/26 12:21:51;;;;;;;;;;;9.10;99.90;;;;;;5025668;28;19928;-71
2023/03/26 12:24:25;;;;;;;;;;;9.20;99.90;;;;;;5025686;28;19921;-73
2023/03/26 12:26:56;;;;;;;;;;;9.50;99.90;;;;;;5024598;28;19985;-73
2023/03/26 12:29:24;;;;;;;;;;;9.80;99.90;;;;;;5025394;28;19928;-71
2023/03/26 12:31:55;;;;;;;;;;;10.10;99.90;;;;;;5025530;28;20205;-71
2023/03/26 12:34:23;;;;;;;;;;;10.50;99.90;;;;;;5025524;28;19921;-71
2023/03/26 12:36:52;;;;;;;;;;;10.70;99.90;;;;;;5005211;28;20205;-72
2023/03/26 12:39:36;;;;;;;;;;;10.90;99.90;;;;;;5005722;28;19922;-73
2023/03/26 12:42:06;;;;;;;;;;;11.20;99.90;;;;;;5005327;28;19922;-72
2023/03/26 12:44:36;;;;;;;;;;;11.30;99.90;;;;;;5005710;28;19928;-72
2023/03/26 12:47:23;;;;;;;;;;;11.20;99.90;;;;;;5011140;28;20263;-72
2023/03/26 12:49:51;;;;;;;;;;;11.40;99.90;;;;;;5020108;28;19928;-72
2023/03/26 12:52:29;;;;;;;;;;;11.70;99.90;;;;;;5025198;28;19921;-72
2023/03/26 12:55:08;;;;;;;;;;;11.80;99.90;;;;;;5024091;28;20213;-72
2023/03/26 12:57:37;;;;;;;;;;;12.00;99.90;;;;;;5024691;28;19944;-72
2023/03/26 13:00:20;;;;;;;;;;;12.10;99.90;;;;;;5025035;28;19928;-72
2023/03/26 13:03:07;;;;;;;;;;;12.20;99.90;;;;;;5013731;28;19922;-72
2023/03/26 13:05:39;;;;;;;;;;;12.30;99.90;;;;;;5021186;28;19921;-72
2023/03/26 13:08:14;;;;;;;;;;;12.50;99.90;;;;;;5024776;28;19921;-72
2023/03/26 13:10:48;;;;;;;;;;;12.60;99.90;;;;;;5024845;28;19957;-72
2023/03/26 13:13:29;;;;;;;;;;;12.80;99.90;;;;;;5024806;28;19922;-72
2023/03/26 13:15:59;;;;;;;;;;;13.10;99.90;;;;;;5022642;28;20177;-72
2023/03/26 13:18:31;;;;;;;;;;;13.00;99.90;;;;;;5024708;28;19985;-72
2023/03/26 13:21:01;;;;;;;;;;;13.00;99.90;;;;;;5024663;28;19921;-71
2023/03/26 13:23:33;;;;;;;;;;;12.90;99.90;;;;;;5024131;28;20231;-72
2023/03/26 13:26:05;;;;;;;;;;;12.80;99.90;;;;;;5024559;28;19928;-72
2023/03/26 13:28:36;;;;;;;;;;;12.70;99.90;;;;;;5024576;28;19967;-72
2023/03/26 13:31:07;;;;;;;;;;;12.90;99.90;;;;;;5024579;28;19984;-72
2023/03/26 13:33:39;;;;;;;;;;;13.00;99.90;;;;;;5024318;28;19921;-72
2023/03/26 13:36:10;;;;;;;;;;;12.90;99.90;;;;;;5024168;28;19921;-72
2023/03/26 13:38:41;;;;;;;;;;;13.10;99.90;;;;;;5024298;28;19981;-71
2023/03/26 13:41:15;;;;;;;;;;;13.20;99.90;;;;;;5024371;28;19922;-72
2023/03/26 13:43:46;;;;;;;;;;;13.50;99.90;;;;;;5023840;28;19921;-72
2023/03/26 13:46:19;;;;;;;;;;;13.30;99.90;;;;;;5023918;28;19989;-72
2023/03/26 13:48:48;;;;;;;;;;;13.10;99.90;;;;;;5023855;28;19944;-71
2023/03/26 13:51:18;;;;;;;;;;;13.10;99.90;;;;;;5024121;28;19922;-72
2023/03/26 13:53:47;;;;;;;;;;;13.30;99.90;;;;;;5023169;28;19921;-72
2023/03/26 13:56:15;;;;;;;;;;;13.30;99.90;;;;;;5024033;28;19922;-71
2023/03/26 13:58:45;;;;;;;;;;;13.40;99.90;;;;;;5024008;28;19964;-72
2023/03/26 14:01:15;;;;;;;;;;;13.50;99.90;;;;;;5023568;28;19928;-71
2023/03/26 14:03:48;;;;;;;;;;;13.80;99.90;;;;;;5023706;28;19921;-71
2023/03/26 14:06:27;;;;;;;;;;;14.00;99.90;;;;;;5023219;28;19928;-72
2023/03/26 14:08:56;;;;;;;;;;;14.00;99.90;;;;;;5023800;28;19921;-72
2023/03/26 14:11:30;;;;;;;;;;;13.70;99.90;;;;;;5023622;28;20403;-72
2023/03/26 14:14:00;;;;;;;;;;;13.90;99.90;;;;;;5024014;28;19952;-73
2023/03/26 14:16:29;;;;;;;;;;;14.00;99.90;;;;;;5023213;28;19921;-72
2023/03/26 14:19:03;;;;;;;;;;;14.20;99.90;;;;;;5023482;28;20263;-71
2023/03/26 14:21:43;;;;;;;;;;;14.40;99.90;;;;;;5023483;28;19929;-72
2023/03/26 14:24:34;;;;;;;;;;;14.50;99.90;;;;;;5023642;28;19961;-71
2023/03/26 14:27:12;;;;;;;;;;;14.60;99.90;;;;;;5023506;28;19959;-72
2023/03/26 14:29:51;;;;;;;;;;;14.60;99.90;;;;;;5023442;28;19922;-72
2023/03/26 14:32:39;;;;;;;;;;;14.40;99.90;;;;;;5023625;28;19927;-73
2023/03/26 14:35:20;;;;;;;;;;;14.10;99.90;;;;;;5020190;28;19928;-72
2023/03/26 14:38:01;;;;;;;;;;;13.40;99.90;;;;;;5023463;28;19948;-72
2023/03/26 14:40:29;;;;;;;;;;;13.20;99.90;;;;;;5014965;28;19928;-72
2023/03/26 14:43:06;;;;;;;;;;;13.30;99.90;;;;;;5023542;28;20205;-71
2023/03/26 14:45:48;;;;;;;;;;;13.40;99.90;;;;;;5023187;28;19959;-72
2023/03/26 14:48:33;;;;;;;;;;;13.50;99.90;;;;;;5023444;28;19944;-72
2023/03/26 14:51:04;;;;;;;;;;;13.60;99.90;;;;;;5027441;28;19953;-72